createdAt,value
2017-05-15T00:01:48.704Z,97.00
2017-05-15T00:04:16.960Z,97.10
2017-05-15T00:06:45.200Z,97.20
2017-05-15T00:09:13.434Z,97.40
2017-05-15T00:11:42.438Z,97.80
2017-05-15T00:14:11.415Z,97.70
2017-05-15T00:16:39.704Z,97.80
2017-05-15T00:19:08.709Z,97.70
2017-05-15T00:21:36.947Z,97.90
2017-05-15T00:24:05.188Z,97.80
2017-05-15T00:26:33.526Z,97.70
2017-05-15T00:29:02.516Z,97.60
2017-05-15T00:31:31.492Z,97.50
2017-05-15T00:33:59.745Z,97.50
2017-05-15T00:36:27.983Z,97.40
2017-05-15T00:38:56.220Z,97.80
2017-05-15T00:41:25.219Z,97.60
2017-05-15T00:43:54.221Z,97.80
2017-05-15T00:46:23.213Z,97.80
2017-05-15T00:48:52.307Z,97.60
2017-05-15T00:51:20.584Z,98.00
2017-05-15T00:53:49.557Z,97.80
2017-05-15T00:56:17.817Z,98.10
2017-05-15T00:58:46.061Z,98.10
2017-05-15T01:01:14.290Z,98.10
2017-05-15T01:03:43.284Z,98.10
2017-05-15T01:06:12.267Z,98.10
2017-05-15T01:08:40.492Z,98.10
2017-05-15T01:11:08.751Z,98.10
2017-05-15T01:13:36.984Z,98.10
2017-05-15T01:16:05.282Z,97.70
2017-05-15T01:18:34.284Z,98.00
2017-05-15T01:21:02.535Z,97.90
2017-05-15T01:23:30.768Z,98.00
2017-05-15T01:25:59.018Z,97.80
2017-05-15T01:28:27.241Z,98.00
2017-05-15T01:30:55.478Z,98.00
2017-05-15T01:33:23.728Z,98.00
2017-05-15T01:35:51.968Z,98.30
2017-05-15T01:38:20.209Z,97.80
2017-05-15T01:40:48.460Z,97.80
2017-05-15T01:43:16.729Z,97.80
2017-05-15T01:45:44.993Z,97.70
2017-05-15T01:48:14.092Z,97.50
2017-05-15T01:50:47.991Z,97.40
2017-05-15T01:53:16.989Z,97.40
2017-05-15T01:55:45.972Z,97.60
2017-05-15T01:58:14.944Z,97.60
2017-05-15T02:00:43.212Z,97.50
2017-05-15T02:03:11.437Z,97.70
2017-05-15T02:05:39.713Z,97.80
2017-05-15T02:08:07.971Z,97.90
2017-05-15T02:10:36.948Z,97.80
2017-05-15T02:13:05.916Z,98.00
2017-05-15T02:15:34.246Z,98.00
2017-05-15T02:18:02.504Z,98.10
2017-05-15T02:20:31.537Z,98.10
2017-05-15T02:22:59.792Z,98.00
2017-05-15T02:25:28.027Z,98.00
2017-05-15T02:27:57.052Z,98.10
2017-05-15T02:30:25.322Z,98.00
2017-05-15T02:32:54.319Z,98.20
2017-05-15T02:35:22.591Z,98.50
2017-05-15T02:37:50.847Z,98.10
2017-05-15T02:40:19.868Z,97.90
2017-05-15T02:42:48.100Z,97.90
2017-05-15T02:45:16.350Z,97.80
2017-05-15T02:47:44.594Z,97.90
2017-05-15T02:50:12.855Z,97.80
2017-05-15T02:52:41.118Z,97.90
2017-05-15T02:55:10.100Z,97.90
2017-05-15T02:57:38.320Z,97.70
2017-05-15T03:00:06.680Z,97.50
2017-05-15T03:02:34.943Z,97.60
2017-05-15T03:05:03.947Z,97.50
2017-05-15T03:07:32.323Z,97.50
2017-05-15T03:10:00.589Z,97.50
2017-05-15T03:12:29.581Z,97.60
2017-05-15T03:14:58.582Z,97.50
2017-05-15T03:17:26.818Z,97.50
2017-05-15T03:19:55.053Z,97.50
2017-05-15T03:22:23.299Z,97.40
2017-05-15T03:24:52.302Z,96.90
2017-05-15T03:27:20.564Z,97.00
2017-05-15T03:29:49.676Z,96.40
2017-05-15T03:32:17.907Z,96.60
2017-05-15T03:34:46.214Z,96.40
2017-05-15T03:37:15.278Z,96.50
2017-05-15T03:39:43.504Z,96.50
2017-05-15T03:42:11.814Z,96.30
2017-05-15T03:44:40.060Z,95.80
2017-05-15T03:47:08.290Z,96.20
2017-05-15T03:49:37.304Z,95.80
2017-05-15T03:52:05.577Z,95.80
2017-05-15T03:54:34.577Z,95.70
2017-05-15T03:57:02.875Z,95.80
2017-05-15T03:59:31.135Z,95.80
2017-05-15T04:01:59.390Z,95.70
2017-05-15T04:04:28.362Z,95.60
2017-05-15T04:06:56.609Z,95.50
2017-05-15T04:09:24.876Z,95.40
2017-05-15T04:11:53.100Z,95.40
2017-05-15T04:14:21.354Z,95.30
2017-05-15T04:16:49.579Z,94.50
2017-05-15T04:19:17.831Z,95.00
2017-05-15T04:21:46.806Z,94.80
2017-05-15T04:24:15.052Z,94.70
2017-05-15T04:26:43.391Z,94.60
2017-05-15T04:29:11.748Z,95.00
2017-05-15T04:31:40.743Z,94.90
2017-05-15T04:34:09.747Z,95.00
2017-05-15T04:36:37.992Z,95.00
2017-05-15T04:39:06.225Z,95.10
2017-05-15T04:41:34.560Z,95.10
2017-05-15T04:44:03.547Z,95.10
2017-05-15T04:46:32.592Z,95.10
2017-05-15T04:49:00.836Z,94.80
2017-05-15T04:51:29.056Z,95.00
2017-05-15T04:53:57.312Z,95.10
2017-05-15T04:56:25.549Z,95.00
2017-05-15T04:58:53.789Z,94.90
2017-05-15T05:01:22.038Z,95.00
2017-05-15T05:03:50.369Z,94.90
2017-05-15T05:06:19.389Z,94.90
2017-05-15T05:08:47.608Z,94.40
2017-05-15T05:11:15.944Z,94.60
2017-05-15T05:13:44.205Z,94.70
2017-05-15T05:16:12.442Z,94.90
2017-05-15T05:18:40.751Z,94.60
2017-05-15T05:21:15.008Z,94.50
2017-05-15T05:23:55.197Z,94.60
2017-05-15T05:26:36.022Z,94.20
2017-05-15T05:32:26.333Z,93.50
2017-05-15T05:35:04.300Z,93.40
2017-05-15T05:37:53.160Z,93.70
2017-05-15T05:40:33.139Z,93.90
2017-05-15T05:43:07.345Z,93.80
2017-05-15T05:45:35.616Z,93.80
2017-05-15T05:48:03.877Z,93.50
2017-05-15T05:50:32.282Z,93.80
2017-05-15T05:53:00.528Z,93.70
2017-05-15T05:55:40.694Z,93.40
2017-05-15T05:58:15.752Z,93.20
2017-05-15T06:00:56.180Z,93.20
2017-05-15T06:03:36.341Z,92.70
2017-05-15T06:06:16.828Z,92.80
2017-05-15T06:08:56.926Z,92.60
2017-05-15T06:11:37.876Z,93.00
2017-05-15T06:14:18.061Z,93.30
2017-05-15T06:17:10.810Z,92.80
2017-05-15T06:19:38.554Z,92.20
2017-05-15T06:22:18.827Z,92.20
2017-05-15T06:24:59.661Z,92.10
2017-05-15T06:27:28.554Z,92.60
2017-05-15T06:29:56.869Z,92.20
2017-05-15T06:32:24.442Z,92.20
2017-05-15T06:34:52.750Z,92.00
2017-05-15T06:37:21.554Z,92.20
2017-05-15T06:40:15.671Z,92.30
2017-05-15T06:42:43.940Z,91.40
2017-05-15T06:45:13.079Z,91.60
2017-05-15T06:47:43.014Z,91.60
2017-05-15T06:50:11.336Z,91.60
2017-05-15T06:52:39.639Z,91.50
2017-05-15T06:55:08.094Z,91.30
2017-05-15T06:57:36.409Z,91.90
2017-05-15T07:00:04.796Z,90.90
2017-05-15T07:02:33.125Z,91.00
2017-05-15T07:05:01.411Z,91.00
2017-05-15T07:07:29.305Z,91.10
2017-05-15T07:09:57.585Z,90.90
2017-05-15T07:12:25.860Z,90.80
2017-05-15T07:17:10.389Z,90.70
2017-05-15T07:19:38.615Z,90.60
2017-05-15T07:22:07.286Z,90.20
2017-05-15T07:24:35.563Z,89.80
2017-05-15T07:27:04.039Z,90.00
2017-05-15T07:29:32.287Z,90.10
2017-05-15T07:32:00.557Z,90.20
2017-05-15T07:34:28.858Z,90.00
2017-05-15T07:36:57.111Z,89.30
2017-05-15T07:39:25.397Z,89.10
2017-05-15T07:41:53.748Z,89.90
2017-05-15T07:44:27.274Z,88.90
2017-05-15T07:46:55.778Z,87.90
2017-05-15T07:49:24.030Z,88.00
2017-05-15T07:51:52.292Z,88.00
2017-05-15T07:54:20.630Z,89.00
2017-05-15T07:56:49.701Z,88.10
2017-05-15T07:59:17.998Z,87.10
2017-05-15T08:01:47.078Z,87.00
2017-05-15T08:04:15.305Z,87.20
2017-05-15T08:06:43.543Z,86.40
2017-05-15T08:09:11.840Z,86.60
2017-05-15T08:11:40.850Z,87.30
2017-05-15T08:14:09.210Z,87.60
2017-05-15T08:16:38.167Z,87.80
2017-05-15T08:19:06.595Z,86.70
2017-05-15T08:21:34.832Z,86.50
2017-05-15T08:24:03.059Z,87.10
2017-05-15T08:26:31.335Z,86.40
2017-05-15T08:28:59.564Z,85.30
2017-05-15T08:31:27.855Z,85.50
2017-05-15T08:33:56.828Z,84.40
2017-05-15T08:36:25.199Z,83.20
2017-05-15T08:38:53.610Z,82.20
2017-05-15T08:41:21.888Z,81.90
2017-05-15T08:43:50.136Z,83.20
2017-05-15T08:46:19.148Z,84.30
2017-05-15T08:48:47.467Z,84.40
2017-05-15T08:51:15.736Z,84.70
2017-05-15T08:53:43.993Z,84.20
2017-05-15T08:56:12.229Z,83.40
2017-05-15T08:58:40.460Z,82.10
2017-05-15T09:01:08.698Z,82.40
2017-05-15T09:03:37.799Z,82.10
2017-05-15T09:06:06.076Z,81.30
2017-05-15T09:08:34.319Z,81.60
2017-05-15T09:11:02.560Z,81.10
2017-05-15T09:13:30.792Z,80.90
2017-05-15T09:15:59.061Z,81.20
2017-05-15T09:18:28.037Z,80.40
2017-05-15T09:20:56.276Z,79.30
2017-05-15T09:23:24.596Z,79.60
2017-05-15T09:25:53.016Z,78.90
2017-05-15T09:28:21.311Z,78.20
2017-05-15T09:30:49.549Z,78.80
2017-05-15T09:33:17.771Z,78.70
2017-05-15T09:35:46.006Z,78.80
2017-05-15T09:38:14.235Z,76.40
2017-05-15T09:40:42.488Z,75.30
2017-05-15T09:43:10.826Z,74.00
2017-05-15T09:45:39.054Z,73.70
2017-05-15T09:48:07.373Z,73.50
2017-05-15T09:50:35.595Z,74.80
2017-05-15T09:53:03.857Z,73.70
2017-05-15T09:55:32.112Z,74.30
2017-05-15T09:58:00.349Z,74.00
2017-05-15T10:00:29.357Z,74.10
2017-05-15T10:02:57.636Z,72.50
2017-05-15T10:05:25.904Z,72.40
2017-05-15T10:07:54.872Z,72.30
2017-05-15T10:10:23.201Z,72.00
2017-05-15T10:12:51.463Z,72.70
2017-05-15T10:15:19.733Z,72.20
2017-05-15T10:17:48.004Z,72.30
2017-05-15T10:20:16.285Z,67.70
2017-05-15T10:22:44.673Z,69.00
2017-05-15T10:25:12.933Z,69.30
2017-05-15T10:27:41.375Z,67.50
2017-05-15T10:30:09.796Z,67.30
2017-05-15T10:32:38.027Z,66.80
2017-05-15T10:35:06.267Z,64.60
2017-05-15T10:37:34.504Z,67.30
2017-05-15T10:40:03.496Z,67.60
2017-05-15T10:42:32.507Z,68.10
2017-05-15T10:45:00.814Z,60.20
2017-05-15T10:47:29.130Z,62.90
2017-05-15T10:49:58.120Z,62.60
2017-05-15T10:52:26.412Z,61.50
2017-05-15T10:54:54.656Z,59.90
2017-05-15T10:57:22.959Z,60.70
2017-05-15T10:59:51.988Z,62.20
2017-05-15T11:02:20.302Z,63.30
2017-05-15T11:04:48.525Z,61.40
2017-05-15T11:07:16.808Z,59.00
2017-05-15T11:09:45.125Z,58.40
2017-05-15T11:12:13.467Z,54.70
2017-05-15T11:14:41.696Z,54.40
2017-05-15T11:17:09.997Z,56.20
2017-05-15T11:19:38.256Z,56.30
2017-05-15T11:22:07.217Z,56.70
2017-05-15T11:24:35.480Z,57.50
2017-05-15T11:27:03.708Z,58.70
2017-05-15T11:29:31.953Z,56.70
2017-05-15T11:32:00.472Z,58.60
2017-05-15T11:34:28.769Z,59.00
2017-05-15T11:36:57.039Z,57.20
2017-05-15T11:39:25.309Z,56.60
2017-05-15T11:41:53.707Z,55.60
2017-05-15T11:44:21.964Z,53.70
2017-05-15T11:46:50.350Z,53.10
2017-05-15T11:49:18.588Z,50.50
2017-05-15T11:51:46.840Z,49.60
2017-05-15T11:54:15.174Z,50.00
2017-05-15T11:56:43.466Z,50.30
2017-05-15T11:59:11.911Z,52.40
2017-05-15T12:01:40.164Z,53.70
2017-05-15T12:04:08.456Z,53.20
2017-05-15T12:06:36.684Z,52.90
2017-05-15T12:09:05.111Z,52.50
2017-05-15T12:11:33.351Z,51.30
2017-05-15T12:14:02.736Z,50.80
2017-05-15T12:16:31.064Z,51.10
2017-05-15T12:18:59.373Z,48.70
2017-05-15T12:21:27.857Z,48.30
2017-05-15T12:23:56.103Z,48.80
2017-05-15T12:26:24.357Z,48.70
2017-05-15T12:28:52.643Z,48.00
2017-05-15T12:31:20.896Z,45.00
2017-05-15T12:33:49.899Z,46.70
2017-05-15T12:36:18.130Z,47.20
2017-05-15T12:38:46.353Z,46.90
2017-05-15T12:41:14.588Z,46.30
2017-05-15T12:43:42.864Z,45.00
2017-05-15T12:46:11.117Z,45.30
2017-05-15T12:48:39.456Z,45.50
2017-05-15T12:51:07.761Z,47.20
2017-05-15T12:53:36.250Z,46.70
2017-05-15T12:56:04.559Z,46.40
2017-05-15T12:58:32.885Z,46.00
2017-05-15T13:01:01.144Z,45.10
2017-05-15T13:03:29.508Z,45.00
2017-05-15T13:05:57.888Z,45.30
2017-05-15T13:08:26.890Z,42.10
2017-05-15T13:10:54.400Z,41.30
2017-05-15T13:13:22.725Z,41.50
2017-05-15T13:15:50.987Z,40.70
2017-05-15T13:18:19.233Z,42.10
2017-05-15T13:20:47.490Z,41.70
2017-05-15T13:23:15.776Z,41.20
2017-05-15T13:25:44.038Z,41.40
2017-05-15T13:28:12.378Z,42.00
2017-05-15T13:30:40.659Z,41.90
2017-05-15T13:33:08.883Z,42.60
2017-05-15T13:35:37.163Z,42.30
2017-05-15T13:38:05.480Z,41.10
2017-05-15T13:40:33.712Z,42.70
2017-05-15T13:43:02.120Z,42.10
2017-05-15T13:45:31.135Z,43.00
2017-05-15T13:47:59.605Z,43.70
2017-05-15T13:50:27.863Z,43.00
2017-05-15T13:52:56.188Z,42.90
2017-05-15T13:55:24.529Z,43.90
2017-05-15T13:57:52.752Z,44.80
2017-05-15T14:00:21.032Z,45.60
2017-05-15T14:02:49.276Z,42.90
2017-05-15T14:05:17.514Z,42.80
2017-05-15T14:07:45.793Z,42.90
2017-05-15T14:10:14.939Z,42.80
2017-05-15T14:12:43.200Z,44.00
2017-05-15T14:15:11.440Z,45.20
2017-05-15T14:17:39.869Z,45.10
2017-05-15T14:20:08.099Z,46.20
2017-05-15T14:22:37.064Z,45.40
2017-05-15T14:25:05.325Z,45.10
2017-05-15T14:27:33.560Z,45.70
2017-05-15T14:30:01.791Z,44.50
2017-05-15T14:32:30.061Z,42.80
2017-05-15T14:34:58.295Z,43.90
2017-05-15T14:37:26.548Z,45.20
2017-05-15T14:39:54.796Z,44.90
2017-05-15T14:42:23.794Z,44.60
2017-05-15T14:44:52.823Z,45.10
2017-05-15T14:47:21.165Z,45.70
2017-05-15T14:49:49.464Z,45.80
2017-05-15T14:52:17.696Z,46.70
2017-05-15T14:54:45.951Z,45.90
2017-05-15T14:57:14.199Z,46.80
2017-05-15T14:59:42.443Z,45.90
2017-05-15T15:02:10.714Z,46.10
2017-05-15T15:04:39.726Z,46.80
2017-05-15T15:07:07.984Z,46.50
2017-05-15T15:09:36.312Z,47.00
2017-05-15T15:12:04.542Z,46.80
2017-05-15T15:14:33.576Z,47.10
2017-05-15T15:17:01.908Z,46.50
2017-05-15T15:19:30.903Z,45.80
2017-05-15T15:21:59.882Z,43.30
2017-05-15T15:24:28.136Z,41.10
2017-05-15T15:26:56.459Z,38.90
2017-05-15T15:29:24.729Z,33.40
2017-05-15T15:31:53.011Z,32.40
2017-05-15T15:34:21.301Z,31.80
2017-05-15T15:36:49.533Z,34.90
2017-05-15T15:39:18.524Z,36.90
2017-05-15T15:41:46.806Z,37.50
2017-05-15T15:44:15.820Z,36.50
2017-05-15T15:46:44.129Z,35.70
2017-05-15T15:49:12.360Z,35.50
2017-05-15T15:51:40.648Z,35.30
2017-05-15T15:54:08.931Z,34.10
2017-05-15T15:56:37.190Z,33.60
2017-05-15T15:59:05.471Z,30.70
2017-05-15T16:01:33.724Z,31.00
2017-05-15T16:04:01.982Z,32.50
2017-05-15T16:06:30.504Z,34.90
2017-05-15T16:08:58.885Z,35.10
2017-05-15T16:11:27.171Z,35.30
2017-05-15T16:13:55.429Z,35.60
2017-05-15T16:16:23.666Z,37.60
2017-05-15T16:18:52.665Z,37.50
2017-05-15T16:21:20.892Z,38.40
2017-05-15T16:23:49.252Z,36.90
2017-05-15T16:26:17.551Z,37.60
2017-05-15T16:28:45.893Z,37.30
2017-05-15T16:31:14.888Z,37.60
2017-05-15T16:33:43.861Z,37.70
2017-05-15T16:36:12.135Z,39.80
2017-05-15T16:38:41.135Z,40.40
2017-05-15T16:41:09.432Z,41.00
2017-05-15T16:43:37.673Z,40.70
2017-05-15T16:46:06.072Z,40.40
2017-05-15T16:48:35.111Z,39.90
2017-05-15T16:51:03.348Z,39.80
2017-05-15T16:53:31.587Z,40.30
2017-05-15T16:55:59.829Z,40.70
2017-05-15T16:58:28.078Z,40.90
2017-05-15T17:00:56.358Z,41.60
2017-05-15T17:03:24.613Z,41.60
2017-05-15T17:05:52.849Z,41.10
2017-05-15T17:08:21.222Z,41.10
2017-05-15T17:10:49.518Z,41.30
2017-05-15T17:13:17.804Z,40.50
2017-05-15T17:15:46.119Z,40.10
2017-05-15T17:18:15.096Z,37.40
2017-05-15T17:20:43.332Z,36.10
2017-05-15T17:23:11.580Z,33.10
2017-05-15T17:25:39.845Z,32.90
2017-05-15T17:28:08.808Z,33.80
2017-05-15T17:30:37.212Z,34.20
2017-05-15T17:33:06.201Z,33.70
2017-05-15T17:35:35.256Z,34.20
2017-05-15T17:38:03.627Z,33.90
2017-05-15T17:40:31.952Z,35.20
2017-05-15T17:43:00.921Z,34.20
2017-05-15T17:45:29.191Z,34.70
2017-05-15T17:47:57.415Z,35.50
2017-05-15T17:50:25.688Z,36.40
2017-05-15T17:52:53.959Z,36.80
2017-05-15T17:55:22.186Z,38.00
2017-05-15T17:57:50.427Z,37.90
2017-05-15T18:00:18.676Z,38.70
2017-05-15T18:02:46.972Z,40.50
2017-05-15T18:05:15.303Z,39.80
2017-05-15T18:07:43.530Z,40.70
2017-05-15T18:10:11.820Z,41.40
2017-05-15T18:12:40.051Z,41.90
2017-05-15T18:15:09.144Z,41.80
2017-05-15T18:17:38.123Z,42.40
2017-05-15T18:20:07.085Z,42.80
2017-05-15T18:22:35.324Z,43.20
2017-05-15T18:25:03.557Z,43.30
2017-05-15T18:27:31.820Z,43.70
2017-05-15T18:30:00.138Z,44.10
2017-05-15T18:32:28.453Z,44.60
2017-05-15T18:34:56.788Z,44.10
2017-05-15T18:37:25.069Z,45.00
2017-05-15T18:39:53.379Z,44.90
2017-05-15T18:42:21.608Z,45.30
2017-05-15T18:44:50.708Z,45.60
2017-05-15T18:47:19.022Z,45.10
2017-05-15T18:49:47.271Z,45.70
2017-05-15T18:52:15.526Z,46.10
2017-05-15T18:54:43.760Z,46.10
2017-05-15T18:57:12.030Z,46.10
2017-05-15T18:59:40.347Z,46.20
2017-05-15T19:02:09.320Z,46.20
2017-05-15T19:04:37.584Z,48.40
2017-05-15T19:07:05.815Z,46.70
2017-05-15T19:09:34.086Z,46.10
2017-05-15T19:12:02.355Z,46.20
2017-05-15T19:14:30.770Z,46.00
2017-05-15T19:16:59.019Z,46.50
2017-05-15T19:19:27.276Z,47.20
2017-05-15T19:21:54.839Z,47.00
2017-05-15T19:24:23.081Z,46.20
2017-05-15T19:26:51.398Z,46.40
2017-05-15T19:29:20.451Z,46.70
2017-05-15T19:31:48.721Z,47.10
2017-05-15T19:34:17.005Z,48.50
2017-05-15T19:36:45.228Z,48.10
2017-05-15T19:39:13.509Z,48.80
2017-05-15T19:41:41.756Z,48.30
2017-05-15T19:44:10.740Z,48.50
2017-05-15T19:46:39.740Z,49.00
2017-05-15T19:49:08.007Z,49.50
2017-05-15T19:51:36.985Z,49.10
2017-05-15T19:54:05.275Z,49.30
2017-05-15T19:56:34.272Z,49.40
2017-05-15T19:59:03.259Z,48.90
2017-05-15T20:01:32.275Z,48.80
2017-05-15T20:04:00.513Z,48.90
2017-05-15T20:06:28.773Z,49.10
2017-05-15T20:08:57.027Z,50.00
2017-05-15T20:11:25.316Z,50.40
2017-05-15T20:13:53.539Z,50.00
2017-05-15T20:16:21.846Z,51.00
2017-05-15T20:18:50.084Z,50.90
2017-05-15T20:21:18.387Z,51.10
2017-05-15T20:23:46.748Z,52.00
2017-05-15T20:26:14.985Z,52.00
2017-05-15T20:28:43.229Z,52.00
2017-05-15T20:31:11.574Z,51.50
2017-05-15T20:33:39.819Z,51.70
2017-05-15T20:36:08.056Z,51.70
2017-05-15T20:38:36.305Z,51.20
2017-05-15T20:41:04.536Z,51.90
2017-05-15T20:43:33.248Z,52.10
2017-05-15T20:46:01.524Z,52.00
2017-05-15T20:48:30.516Z,52.00
2017-05-15T20:50:58.750Z,52.50
2017-05-15T20:53:27.215Z,51.50
2017-05-15T20:55:55.465Z,51.90
2017-05-15T20:58:23.724Z,51.40
2017-05-15T21:00:52.044Z,51.90
2017-05-15T21:03:20.295Z,51.40
2017-05-15T21:05:48.547Z,51.10
2017-05-15T21:08:16.822Z,51.50
2017-05-15T21:10:45.806Z,50.90
2017-05-15T21:13:14.801Z,50.90
2017-05-15T21:15:43.817Z,50.90
2017-05-15T21:18:12.080Z,50.80
2017-05-15T21:20:40.392Z,51.20
2017-05-15T21:23:08.676Z,51.40
2017-05-15T21:25:36.912Z,51.30
2017-05-15T21:28:05.145Z,50.80
2017-05-15T21:30:33.372Z,50.80
2017-05-15T21:33:01.649Z,51.60
2017-05-15T21:35:29.888Z,51.10
2017-05-15T21:37:58.888Z,50.80
2017-05-15T21:40:27.885Z,51.70
2017-05-15T21:42:56.104Z,51.70
2017-05-15T21:45:24.435Z,51.40
2017-05-15T21:47:54.877Z,50.10
2017-05-15T21:50:23.232Z,49.10
2017-05-15T21:52:52.264Z,48.80
2017-05-15T21:55:20.596Z,48.30
2017-05-15T21:57:49.709Z,47.20
2017-05-15T22:00:17.939Z,47.00
2017-05-15T22:02:46.184Z,46.70
2017-05-15T22:05:14.439Z,47.10
2017-05-15T22:07:42.694Z,47.30
2017-05-15T22:10:11.680Z,47.60
2017-05-15T22:12:40.659Z,47.90
2017-05-15T22:15:08.951Z,48.20
2017-05-15T22:17:37.936Z,48.60
2017-05-15T22:20:06.912Z,48.40
2017-05-15T22:22:35.192Z,48.00
2017-05-15T22:25:03.491Z,48.60
2017-05-15T22:27:33.487Z,48.80
2017-05-15T22:30:01.872Z,48.50
2017-05-15T22:32:30.841Z,48.60
2017-05-15T22:34:59.114Z,48.90
2017-05-15T22:37:27.376Z,48.20
2017-05-15T22:39:55.706Z,48.40
2017-05-15T22:42:24.708Z,48.40
2017-05-15T22:44:52.933Z,48.90
2017-05-15T22:47:21.178Z,49.10
2017-05-15T22:49:49.424Z,49.30
2017-05-15T22:52:17.691Z,49.70
2017-05-15T22:54:46.680Z,49.40
2017-05-15T22:57:15.676Z,49.90
2017-05-15T22:59:44.769Z,49.90
2017-05-15T23:02:13.761Z,49.40
2017-05-15T23:04:42.730Z,49.70
2017-05-15T23:07:10.979Z,49.50
2017-05-15T23:09:39.304Z,49.30
2017-05-15T23:12:08.390Z,49.40
2017-05-15T23:14:36.781Z,49.80
2017-05-15T23:17:05.748Z,50.00
2017-05-15T23:19:33.983Z,50.20
2017-05-15T23:22:02.246Z,50.50
2017-05-15T23:24:30.604Z,50.80
2017-05-15T23:26:58.822Z,51.60
2017-05-15T23:29:27.051Z,51.10
2017-05-15T23:31:55.357Z,52.10
2017-05-15T23:34:23.596Z,51.70
2017-05-15T23:36:52.581Z,51.40
2017-05-15T23:39:21.580Z,51.30
2017-05-15T23:41:50.593Z,51.30
2017-05-15T23:44:18.902Z,51.20
2017-05-15T23:46:47.231Z,51.60
2017-05-15T23:49:16.221Z,51.60
2017-05-15T23:51:45.259Z,51.60
2017-05-15T23:54:13.595Z,51.20
2017-05-15T23:56:41.915Z,51.50
2017-05-15T23:59:10.146Z,52.20
